CYWH

Victoria Harbour Seaplane Base

Victoria, British Columbia, Canada
METAR CYWH 200400Z 22005KT 15SM SKC 11/08 A3022 RMK LAST STFD OBS/NEXT 201300 UTC SLP236
Observed Flight Rules
Oct-20 @ 04:00 UTC (9 hours ago) Visual Flight Rules
Wind Visibility Clouds
220° at 5 knots 15 miles
  • Clear skies
Temperatures Readings
Current 11°C / 52°F
Dewpoint 8°C / 46°F
Humidity 82%
Altimeter 30.22" Hg
Pressure 1023.6 hPa
Elevation 10
METAR CYWH 200400Z 22005KT 15SM SKC 11/08 A3022 RMK LAST STFD OBS/NEXT 201300 UTC SLP236
Observed Flight Rules
Oct-20 @ 04:00 UTC
(9 hours ago)
VFR
Wind Visibility
220° at 5 knots 15 miles
Clouds
  • Clear skies
Temperature Dewpoint
11°C / 52°F 8°C / 46°F
Humidity Altimeter Pressure
82% 30.22" Hg 1023.6 hPa